sensor_id;sensor_type;location;lat;lon;timestamp;P1;durP1;ratioP1;P2;durP2;ratioP2
13879;SDS011;7010;48.200;16.332;2022-09-09T00:00:11;0.52;;;0.52;;
13879;SDS011;7010;48.200;16.332;2022-09-09T00:02:42;0.80;;;0.80;;
13879;SDS011;7010;48.200;16.332;2022-09-09T00:05:19;0.75;;;0.75;;
13879;SDS011;7010;48.200;16.332;2022-09-09T00:07:58;0.47;;;0.47;;
13879;SDS011;7010;48.200;16.332;2022-09-09T00:10:30;0.73;;;0.73;;
13879;SDS011;7010;48.200;16.332;2022-09-09T00:13:05;0.75;;;0.75;;
13879;SDS011;7010;48.200;16.332;2022-09-09T00:15:40;0.60;;;0.60;;
13879;SDS011;7010;48.200;16.332;2022-09-09T00:18:19;0.82;;;0.82;;
13879;SDS011;7010;48.200;16.332;2022-09-09T00:20:55;0.90;;;0.45;;
13879;SDS011;7010;48.200;16.332;2022-09-09T00:23:29;0.68;;;0.68;;
13879;SDS011;7010;48.200;16.332;2022-09-09T00:26:02;0.80;;;0.70;;
13879;SDS011;7010;48.200;16.332;2022-09-09T00:28:38;1.10;;;0.80;;
13879;SDS011;7010;48.200;16.332;2022-09-09T00:31:13;0.85;;;0.85;;
13879;SDS011;7010;48.200;16.332;2022-09-09T00:33:46;0.57;;;0.57;;
13879;SDS011;7010;48.200;16.332;2022-09-09T00:36:17;0.73;;;0.73;;
13879;SDS011;7010;48.200;16.332;2022-09-09T00:38:52;0.93;;;0.93;;
13879;SDS011;7010;48.200;16.332;2022-09-09T00:41:26;0.55;;;0.55;;
13879;SDS011;7010;48.200;16.332;2022-09-09T00:44:17;0.60;;;0.60;;
13879;SDS011;7010;48.200;16.332;2022-09-09T00:46:56;0.50;;;0.50;;
13879;SDS011;7010;48.200;16.332;2022-09-09T00:49:36;0.63;;;0.63;;
13879;SDS011;7010;48.200;16.332;2022-09-09T00:52:26;0.70;;;0.70;;
13879;SDS011;7010;48.200;16.332;2022-09-09T00:55:05;0.52;;;0.52;;
13879;SDS011;7010;48.200;16.332;2022-09-09T00:57:39;1.00;;;0.60;;
13879;SDS011;7010;48.200;16.332;2022-09-09T01:00:18;0.55;;;0.55;;
13879;SDS011;7010;48.200;16.332;2022-09-09T01:02:52;0.40;;;0.40;;
13879;SDS011;7010;48.200;16.332;2022-09-09T01:05:38;0.52;;;0.52;;
13879;SDS011;7010;48.200;16.332;2022-09-09T01:08:14;0.63;;;0.63;;
13879;SDS011;7010;48.200;16.332;2022-09-09T01:10:59;0.68;;;0.68;;
13879;SDS011;7010;48.200;16.332;2022-09-09T01:13:29;1.75;;;0.50;;
13879;SDS011;7010;48.200;16.332;2022-09-09T01:16:00;0.80;;;0.80;;
13879;SDS011;7010;48.200;16.332;2022-09-09T01:18:32;0.47;;;0.47;;
13879;SDS011;7010;48.200;16.332;2022-09-09T01:21:04;0.80;;;0.80;;
13879;SDS011;7010;48.200;16.332;2022-09-09T01:23:47;0.75;;;0.75;;
13879;SDS011;7010;48.200;16.332;2022-09-09T01:26:32;0.52;;;0.52;;
13879;SDS011;7010;48.200;16.332;2022-09-09T01:29:02;1.13;;;0.93;;
13879;SDS011;7010;48.200;16.332;2022-09-09T01:31:36;0.47;;;0.47;;
13879;SDS011;7010;48.200;16.332;2022-09-09T01:34:10;0.63;;;0.63;;
13879;SDS011;7010;48.200;16.332;2022-09-09T01:36:41;0.60;;;0.60;;
13879;SDS011;7010;48.200;16.332;2022-09-09T01:39:12;0.40;;;0.40;;
13879;SDS011;7010;48.200;16.332;2022-09-09T01:41:42;0.30;;;0.30;;
13879;SDS011;7010;48.200;16.332;2022-09-09T01:44:10;0.50;;;0.50;;
13879;SDS011;7010;48.200;16.332;2022-09-09T01:46:39;0.30;;;0.30;;
13879;SDS011;7010;48.200;16.332;2022-09-09T01:49:08;0.60;;;0.60;;
13879;SDS011;7010;48.200;16.332;2022-09-09T01:51:37;0.50;;;0.50;;
13879;SDS011;7010;48.200;16.332;2022-09-09T01:54:07;0.63;;;0.63;;
13879;SDS011;7010;48.200;16.332;2022-09-09T01:56:39;1.75;;;0.93;;
13879;SDS011;7010;48.200;16.332;2022-09-09T01:59:23;0.55;;;0.55;;
13879;SDS011;7010;48.200;16.332;2022-09-09T02:02:06;0.60;;;0.60;;
13879;SDS011;7010;48.200;16.332;2022-09-09T02:04:38;0.50;;;0.50;;
13879;SDS011;7010;48.200;16.332;2022-09-09T02:07:12;0.60;;;0.60;;
13879;SDS011;7010;48.200;16.332;2022-09-09T02:09:52;1.90;;;0.75;;
13879;SDS011;7010;48.200;16.332;2022-09-09T02:12:29;0.50;;;0.50;;
13879;SDS011;7010;48.200;16.332;2022-09-09T02:15:00;0.95;;;0.70;;
13879;SDS011;7010;48.200;16.332;2022-09-09T02:17:33;0.63;;;0.63;;
13879;SDS011;7010;48.200;16.332;2022-09-09T02:20:05;1.73;;;1.10;;
13879;SDS011;7010;48.200;16.332;2022-09-09T02:22:35;0.80;;;0.80;;
13879;SDS011;7010;48.200;16.332;2022-09-09T02:25:08;0.80;;;0.80;;
13879;SDS011;7010;48.200;16.332;2022-09-09T02:27:42;0.85;;;0.85;;
13879;SDS011;7010;48.200;16.332;2022-09-09T02:30:12;0.77;;;0.77;;
13879;SDS011;7010;48.200;16.332;2022-09-09T02:32:42;1.20;;;1.10;;
13879;SDS011;7010;48.200;16.332;2022-09-09T02:35:13;1.08;;;0.57;;
13879;SDS011;7010;48.200;16.332;2022-09-09T02:37:44;0.90;;;0.90;;
13879;SDS011;7010;48.200;16.332;2022-09-09T02:40:13;0.93;;;0.90;;
13879;SDS011;7010;48.200;16.332;2022-09-09T02:42:45;0.77;;;0.70;;
13879;SDS011;7010;48.200;16.332;2022-09-09T02:45:15;0.82;;;0.82;;
13879;SDS011;7010;48.200;16.332;2022-09-09T02:47:48;0.95;;;0.95;;
13879;SDS011;7010;48.200;16.332;2022-09-09T02:50:24;0.60;;;0.60;;
13879;SDS011;7010;48.200;16.332;2022-09-09T02:53:01;0.70;;;0.70;;
13879;SDS011;7010;48.200;16.332;2022-09-09T02:55:39;1.08;;;1.08;;
13879;SDS011;7010;48.200;16.332;2022-09-09T02:58:15;0.90;;;0.90;;
13879;SDS011;7010;48.200;16.332;2022-09-09T03:00:46;1.05;;;1.05;;
13879;SDS011;7010;48.200;16.332;2022-09-09T03:03:16;0.80;;;0.80;;
13879;SDS011;7010;48.200;16.332;2022-09-09T03:05:45;0.82;;;0.80;;
13879;SDS011;7010;48.200;16.332;2022-09-09T03:08:14;2.35;;;0.95;;
13879;SDS011;7010;48.200;16.332;2022-09-09T03:10:43;0.80;;;0.80;;
13879;SDS011;7010;48.200;16.332;2022-09-09T03:13:11;0.90;;;0.90;;
13879;SDS011;7010;48.200;16.332;2022-09-09T03:15:43;1.20;;;1.10;;
13879;SDS011;7010;48.200;16.332;2022-09-09T03:18:11;1.23;;;1.10;;
13879;SDS011;7010;48.200;16.332;2022-09-09T03:20:39;1.25;;;1.15;;
13879;SDS011;7010;48.200;16.332;2022-09-09T03:23:09;0.35;;;0.35;;
13879;SDS011;7010;48.200;16.332;2022-09-09T03:25:45;0.55;;;0.55;;
13879;SDS011;7010;48.200;16.332;2022-09-09T03:28:14;0.65;;;0.65;;
13879;SDS011;7010;48.200;16.332;2022-09-09T03:30:44;0.70;;;0.70;;
13879;SDS011;7010;48.200;16.332;2022-09-09T03:33:12;0.80;;;0.80;;
13879;SDS011;7010;48.200;16.332;2022-09-09T03:35:44;0.80;;;0.80;;
13879;SDS011;7010;48.200;16.332;2022-09-09T03:38:15;1.20;;;1.10;;
13879;SDS011;7010;48.200;16.332;2022-09-09T03:40:48;0.55;;;0.55;;
13879;SDS011;7010;48.200;16.332;2022-09-09T03:43:17;0.93;;;0.93;;
13879;SDS011;7010;48.200;16.332;2022-09-09T03:45:47;0.90;;;0.90;;
13879;SDS011;7010;48.200;16.332;2022-09-09T03:48:16;1.10;;;1.08;;
13879;SDS011;7010;48.200;16.332;2022-09-09T03:50:45;1.85;;;0.80;;
13879;SDS011;7010;48.200;16.332;2022-09-09T03:53:14;0.90;;;0.90;;
13879;SDS011;7010;48.200;16.332;2022-09-09T03:55:43;0.80;;;0.80;;
13879;SDS011;7010;48.200;16.332;2022-09-09T03:58:12;0.90;;;0.90;;
13879;SDS011;7010;48.200;16.332;2022-09-09T04:00:40;1.23;;;1.13;;
13879;SDS011;7010;48.200;16.332;2022-09-09T04:03:13;0.93;;;0.93;;
13879;SDS011;7010;48.200;16.332;2022-09-09T04:05:41;0.95;;;0.95;;
13879;SDS011;7010;48.200;16.332;2022-09-09T04:08:10;1.65;;;1.23;;
13879;SDS011;7010;48.200;16.332;2022-09-09T04:10:38;0.80;;;0.80;;
13879;SDS011;7010;48.200;16.332;2022-09-09T04:13:08;1.00;;;1.00;;
13879;SDS011;7010;48.200;16.332;2022-09-09T04:15:36;1.40;;;1.30;;
13879;SDS011;7010;48.200;16.332;2022-09-09T04:18:04;1.42;;;0.98;;
13879;SDS011;7010;48.200;16.332;2022-09-09T04:20:34;1.42;;;1.02;;
13879;SDS011;7010;48.200;16.332;2022-09-09T04:23:02;1.38;;;1.23;;
13879;SDS011;7010;48.200;16.332;2022-09-09T04:25:30;1.10;;;1.00;;
13879;SDS011;7010;48.200;16.332;2022-09-09T04:28:00;2.15;;;1.30;;
13879;SDS011;7010;48.200;16.332;2022-09-09T04:30:29;1.85;;;0.95;;
13879;SDS011;7010;48.200;16.332;2022-09-09T04:32:57;0.90;;;0.90;;
13879;SDS011;7010;48.200;16.332;2022-09-09T04:35:25;1.30;;;1.20;;
13879;SDS011;7010;48.200;16.332;2022-09-09T04:37:55;1.02;;;1.02;;
13879;SDS011;7010;48.200;16.332;2022-09-09T04:40:23;1.35;;;1.27;;
13879;SDS011;7010;48.200;16.332;2022-09-09T04:42:51;1.55;;;1.45;;
13879;SDS011;7010;48.200;16.332;2022-09-09T04:45:20;1.05;;;1.05;;
13879;SDS011;7010;48.200;16.332;2022-09-09T04:47:48;1.23;;;1.17;;
13879;SDS011;7010;48.200;16.332;2022-09-09T04:50:16;1.40;;;1.30;;
13879;SDS011;7010;48.200;16.332;2022-09-09T04:52:44;1.45;;;1.13;;
13879;SDS011;7010;48.200;16.332;2022-09-09T04:55:14;1.60;;;1.50;;
13879;SDS011;7010;48.200;16.332;2022-09-09T04:57:42;3.08;;;1.33;;
13879;SDS011;7010;48.200;16.332;2022-09-09T05:00:11;1.38;;;1.27;;
13879;SDS011;7010;48.200;16.332;2022-09-09T05:02:40;1.27;;;1.17;;
13879;SDS011;7010;48.200;16.332;2022-09-09T05:05:09;1.60;;;1.50;;
13879;SDS011;7010;48.200;16.332;2022-09-09T05:07:38;1.20;;;1.10;;
13879;SDS011;7010;48.200;16.332;2022-09-09T05:10:06;1.60;;;1.50;;
13879;SDS011;7010;48.200;16.332;2022-09-09T05:12:37;6.15;;;2.03;;
13879;SDS011;7010;48.200;16.332;2022-09-09T05:15:06;1.40;;;1.30;;
13879;SDS011;7010;48.200;16.332;2022-09-09T05:17:35;2.47;;;1.45;;
13879;SDS011;7010;48.200;16.332;2022-09-09T05:20:04;1.60;;;1.50;;
13879;SDS011;7010;48.200;16.332;2022-09-09T05:22:37;2.50;;;1.50;;
13879;SDS011;7010;48.200;16.332;2022-09-09T05:25:05;1.70;;;1.60;;
13879;SDS011;7010;48.200;16.332;2022-09-09T05:27:35;1.65;;;1.55;;
13879;SDS011;7010;48.200;16.332;2022-09-09T05:30:05;1.95;;;1.65;;
13879;SDS011;7010;48.200;16.332;2022-09-09T05:32:34;2.53;;;1.58;;
13879;SDS011;7010;48.200;16.332;2022-09-09T05:35:03;2.30;;;2.00;;
13879;SDS011;7010;48.200;16.332;2022-09-09T05:37:31;1.92;;;1.83;;
13879;SDS011;7010;48.200;16.332;2022-09-09T05:39:59;3.13;;;1.70;;
13879;SDS011;7010;48.200;16.332;2022-09-09T05:42:29;1.40;;;1.30;;
13879;SDS011;7010;48.200;16.332;2022-09-09T05:44:58;1.98;;;1.88;;
13879;SDS011;7010;48.200;16.332;2022-09-09T05:47:28;1.70;;;1.60;;
13879;SDS011;7010;48.200;16.332;2022-09-09T05:49:56;2.03;;;1.92;;
13879;SDS011;7010;48.200;16.332;2022-09-09T05:52:24;1.77;;;1.67;;
13879;SDS011;7010;48.200;16.332;2022-09-09T05:54:53;1.98;;;1.80;;
13879;SDS011;7010;48.200;16.332;2022-09-09T05:57:23;2.58;;;1.70;;
13879;SDS011;7010;48.200;16.332;2022-09-09T05:59:51;2.15;;;1.98;;
13879;SDS011;7010;48.200;16.332;2022-09-09T06:02:20;2.17;;;1.98;;
13879;SDS011;7010;48.200;16.332;2022-09-09T06:04:49;3.28;;;1.70;;
13879;SDS011;7010;48.200;16.332;2022-09-09T06:07:18;2.25;;;1.90;;
13879;SDS011;7010;48.200;16.332;2022-09-09T06:09:46;2.83;;;2.60;;
13879;SDS011;7010;48.200;16.332;2022-09-09T06:12:14;3.55;;;1.95;;
13879;SDS011;7010;48.200;16.332;2022-09-09T06:14:42;5.57;;;2.92;;
13879;SDS011;7010;48.200;16.332;2022-09-09T06:17:11;3.35;;;2.28;;
13879;SDS011;7010;48.200;16.332;2022-09-09T06:19:39;5.15;;;2.63;;
13879;SDS011;7010;48.200;16.332;2022-09-09T06:22:09;2.40;;;2.20;;
13879;SDS011;7010;48.200;16.332;2022-09-09T06:24:38;2.33;;;2.13;;
13879;SDS011;7010;48.200;16.332;2022-09-09T06:27:06;2.65;;;2.45;;
13879;SDS011;7010;48.200;16.332;2022-09-09T06:29:34;3.80;;;2.67;;
13879;SDS011;7010;48.200;16.332;2022-09-09T06:32:02;2.65;;;2.45;;
13879;SDS011;7010;48.200;16.332;2022-09-09T06:34:31;4.70;;;2.97;;
13879;SDS011;7010;48.200;16.332;2022-09-09T06:36:59;3.00;;;2.72;;
13879;SDS011;7010;48.200;16.332;2022-09-09T06:39:29;3.50;;;2.65;;
13879;SDS011;7010;48.200;16.332;2022-09-09T06:41:57;3.45;;;2.33;;
13879;SDS011;7010;48.200;16.332;2022-09-09T06:44:26;3.13;;;2.92;;
13879;SDS011;7010;48.200;16.332;2022-09-09T06:47:00;3.47;;;3.17;;
13879;SDS011;7010;48.200;16.332;2022-09-09T06:49:28;4.07;;;3.13;;
13879;SDS011;7010;48.200;16.332;2022-09-09T06:51:56;2.40;;;2.20;;
13879;SDS011;7010;48.200;16.332;2022-09-09T06:54:24;2.22;;;2.03;;
13879;SDS011;7010;48.200;16.332;2022-09-09T06:56:54;1.90;;;1.73;;
13879;SDS011;7010;48.200;16.332;2022-09-09T06:59:23;5.50;;;2.92;;
13879;SDS011;7010;48.200;16.332;2022-09-09T07:01:51;5.60;;;2.47;;
13879;SDS011;7010;48.200;16.332;2022-09-09T07:04:21;2.58;;;1.98;;
13879;SDS011;7010;48.200;16.332;2022-09-09T07:06:50;2.47;;;2.28;;
13879;SDS011;7010;48.200;16.332;2022-09-09T07:09:18;2.67;;;2.47;;
13879;SDS011;7010;48.200;16.332;2022-09-09T07:11:48;2.47;;;2.28;;
13879;SDS011;7010;48.200;16.332;2022-09-09T07:14:20;2.20;;;1.98;;
13879;SDS011;7010;48.200;16.332;2022-09-09T07:16:48;2.40;;;2.22;;
13879;SDS011;7010;48.200;16.332;2022-09-09T07:19:16;2.63;;;2.25;;
13879;SDS011;7010;48.200;16.332;2022-09-09T07:21:45;2.08;;;1.88;;
13879;SDS011;7010;48.200;16.332;2022-09-09T07:24:13;2.22;;;2.08;;
13879;SDS011;7010;48.200;16.332;2022-09-09T07:26:41;2.90;;;2.25;;
13879;SDS011;7010;48.200;16.332;2022-09-09T07:29:12;2.33;;;2.05;;
13879;SDS011;7010;48.200;16.332;2022-09-09T07:31:47;4.32;;;2.15;;
13879;SDS011;7010;48.200;16.332;2022-09-09T07:34:15;2.47;;;2.28;;
13879;SDS011;7010;48.200;16.332;2022-09-09T07:36:44;4.55;;;2.50;;
13879;SDS011;7010;48.200;16.332;2022-09-09T07:39:13;3.72;;;2.45;;
13879;SDS011;7010;48.200;16.332;2022-09-09T07:41:44;1.95;;;1.75;;
13879;SDS011;7010;48.200;16.332;2022-09-09T07:44:14;2.58;;;2.20;;
13879;SDS011;7010;48.200;16.332;2022-09-09T07:46:43;2.97;;;2.05;;
13879;SDS011;7010;48.200;16.332;2022-09-09T07:49:14;2.05;;;1.95;;
13879;SDS011;7010;48.200;16.332;2022-09-09T07:51:43;3.22;;;2.15;;
13879;SDS011;7010;48.200;16.332;2022-09-09T07:54:13;3.00;;;2.42;;
13879;SDS011;7010;48.200;16.332;2022-09-09T07:56:43;4.07;;;2.83;;
13879;SDS011;7010;48.200;16.332;2022-09-09T07:59:12;3.50;;;2.53;;
13879;SDS011;7010;48.200;16.332;2022-09-09T08:01:41;3.40;;;2.85;;
13879;SDS011;7010;48.200;16.332;2022-09-09T08:04:12;2.83;;;2.63;;
13879;SDS011;7010;48.200;16.332;2022-09-09T08:06:43;3.20;;;2.90;;
13879;SDS011;7010;48.200;16.332;2022-09-09T08:09:13;3.67;;;3.00;;
13879;SDS011;7010;48.200;16.332;2022-09-09T08:11:42;4.40;;;3.10;;
13879;SDS011;7010;48.200;16.332;2022-09-09T08:14:11;4.15;;;2.78;;
13879;SDS011;7010;48.200;16.332;2022-09-09T08:16:41;3.15;;;2.78;;
13879;SDS011;7010;48.200;16.332;2022-09-09T08:19:10;5.90;;;2.97;;
13879;SDS011;7010;48.200;16.332;2022-09-09T08:21:43;2.60;;;2.38;;
13879;SDS011;7010;48.200;16.332;2022-09-09T08:24:12;2.30;;;2.17;;
13879;SDS011;7010;48.200;16.332;2022-09-09T08:26:42;1.95;;;1.83;;
13879;SDS011;7010;48.200;16.332;2022-09-09T08:29:11;2.13;;;1.92;;
13879;SDS011;7010;48.200;16.332;2022-09-09T08:31:41;3.22;;;2.30;;
13879;SDS011;7010;48.200;16.332;2022-09-09T08:34:10;4.53;;;2.72;;
13879;SDS011;7010;48.200;16.332;2022-09-09T08:36:39;2.72;;;2.28;;
13879;SDS011;7010;48.200;16.332;2022-09-09T08:39:11;2.10;;;1.90;;
13879;SDS011;7010;48.200;16.332;2022-09-09T08:41:48;2.30;;;2.10;;
13879;SDS011;7010;48.200;16.332;2022-09-09T08:44:31;7.13;;;2.78;;
13879;SDS011;7010;48.200;16.332;2022-09-09T08:47:16;1.77;;;1.67;;
13879;SDS011;7010;48.200;16.332;2022-09-09T08:49:55;2.53;;;1.90;;
13879;SDS011;7010;48.200;16.332;2022-09-09T08:52:42;1.88;;;1.77;;
13879;SDS011;7010;48.200;16.332;2022-09-09T08:55:24;1.25;;;1.25;;
13879;SDS011;7010;48.200;16.332;2022-09-09T08:57:57;1.67;;;1.58;;
13879;SDS011;7010;48.200;16.332;2022-09-09T09:00:29;2.95;;;1.92;;
13879;SDS011;7010;48.200;16.332;2022-09-09T09:03:05;4.20;;;2.08;;
13879;SDS011;7010;48.200;16.332;2022-09-09T09:05:43;2.88;;;1.88;;
13879;SDS011;7010;48.200;16.332;2022-09-09T09:08:17;2.05;;;1.88;;
13879;SDS011;7010;48.200;16.332;2022-09-09T09:10:56;1.90;;;1.80;;
13879;SDS011;7010;48.200;16.332;2022-09-09T09:13:28;1.45;;;1.35;;
13879;SDS011;7010;48.200;16.332;2022-09-09T09:16:11;2.20;;;1.90;;
13879;SDS011;7010;48.200;16.332;2022-09-09T09:18:47;1.65;;;1.40;;
13879;SDS011;7010;48.200;16.332;2022-09-09T09:21:16;1.50;;;1.40;;
13879;SDS011;7010;48.200;16.332;2022-09-09T09:23:48;2.30;;;2.00;;
13879;SDS011;7010;48.200;16.332;2022-09-09T09:26:25;2.53;;;1.80;;
13879;SDS011;7010;48.200;16.332;2022-09-09T09:28:59;2.05;;;1.83;;
13879;SDS011;7010;48.200;16.332;2022-09-09T09:31:35;1.80;;;1.70;;
13879;SDS011;7010;48.200;16.332;2022-09-09T09:34:03;1.38;;;1.27;;
13879;SDS011;7010;48.200;16.332;2022-09-09T09:36:37;1.15;;;1.15;;
13879;SDS011;7010;48.200;16.332;2022-09-09T09:39:09;1.75;;;1.58;;
13879;SDS011;7010;48.200;16.332;2022-09-09T09:41:59;1.70;;;1.60;;
13879;SDS011;7010;48.200;16.332;2022-09-09T09:44:40;1.77;;;1.67;;
13879;SDS011;7010;48.200;16.332;2022-09-09T09:47:11;1.70;;;1.60;;
13879;SDS011;7010;48.200;16.332;2022-09-09T09:49:50;1.75;;;1.65;;
13879;SDS011;7010;48.200;16.332;2022-09-09T09:52:21;1.63;;;1.30;;
13879;SDS011;7010;48.200;16.332;2022-09-09T09:54:51;9.20;;;1.92;;
13879;SDS011;7010;48.200;16.332;2022-09-09T09:57:24;2.63;;;1.73;;
13879;SDS011;7010;48.200;16.332;2022-09-09T10:00:03;2.65;;;1.77;;
13879;SDS011;7010;48.200;16.332;2022-09-09T10:02:40;1.67;;;1.58;;
13879;SDS011;7010;48.200;16.332;2022-09-09T10:05:13;19.35;;;2.47;;
13879;SDS011;7010;48.200;16.332;2022-09-09T10:07:59;1.55;;;1.40;;
13879;SDS011;7010;48.200;16.332;2022-09-09T10:10:33;1.88;;;1.77;;
13879;SDS011;7010;48.200;16.332;2022-09-09T10:13:17;2.17;;;1.40;;
13879;SDS011;7010;48.200;16.332;2022-09-09T10:15:52;1.55;;;1.40;;
13879;SDS011;7010;48.200;16.332;2022-09-09T10:18:35;1.65;;;1.55;;
13879;SDS011;7010;48.200;16.332;2022-09-09T10:21:25;2.25;;;1.70;;
13879;SDS011;7010;48.200;16.332;2022-09-09T10:24:10;1.40;;;1.30;;
13879;SDS011;7010;48.200;16.332;2022-09-09T10:26:51;1.30;;;1.20;;
13879;SDS011;7010;48.200;16.332;2022-09-09T10:29:29;1.98;;;1.48;;
13879;SDS011;7010;48.200;16.332;2022-09-09T10:32:07;1.60;;;1.50;;
13879;SDS011;7010;48.200;16.332;2022-09-09T10:34:52;1.75;;;1.42;;
13879;SDS011;7010;48.200;16.332;2022-09-09T10:37:32;2.72;;;1.20;;
13879;SDS011;7010;48.200;16.332;2022-09-09T10:40:17;3.50;;;1.88;;
13879;SDS011;7010;48.200;16.332;2022-09-09T10:42:59;2.20;;;1.52;;
13879;SDS011;7010;48.200;16.332;2022-09-09T10:45:35;1.38;;;1.27;;
13879;SDS011;7010;48.200;16.332;2022-09-09T10:48:18;2.00;;;1.83;;
13879;SDS011;7010;48.200;16.332;2022-09-09T10:51:01;1.75;;;1.63;;
13879;SDS011;7010;48.200;16.332;2022-09-09T10:53:47;1.85;;;1.70;;
13879;SDS011;7010;48.200;16.332;2022-09-09T10:56:21;1.80;;;1.70;;
13879;SDS011;7010;48.200;16.332;2022-09-09T10:58:52;1.70;;;1.60;;
13879;SDS011;7010;48.200;16.332;2022-09-09T11:01:27;2.17;;;1.98;;
13879;SDS011;7010;48.200;16.332;2022-09-09T11:04:00;1.77;;;1.67;;
13879;SDS011;7010;48.200;16.332;2022-09-09T11:06:34;1.50;;;1.40;;
13879;SDS011;7010;48.200;16.332;2022-09-09T11:09:08;1.58;;;1.48;;
13879;SDS011;7010;48.200;16.332;2022-09-09T11:11:42;1.33;;;1.23;;
13879;SDS011;7010;48.200;16.332;2022-09-09T11:14:15;2.00;;;1.60;;
13879;SDS011;7010;48.200;16.332;2022-09-09T11:16:50;1.23;;;1.13;;
13879;SDS011;7010;48.200;16.332;2022-09-09T11:19:24;1.50;;;1.40;;
13879;SDS011;7010;48.200;16.332;2022-09-09T11:21:58;1.38;;;1.10;;
13879;SDS011;7010;48.200;16.332;2022-09-09T11:24:30;1.50;;;1.40;;
13879;SDS011;7010;48.200;16.332;2022-09-09T11:27:04;1.58;;;1.17;;
13879;SDS011;7010;48.200;16.332;2022-09-09T11:29:47;2.28;;;1.98;;
13879;SDS011;7010;48.200;16.332;2022-09-09T11:35:42;1.00;;;1.00;;
13879;SDS011;7010;48.200;16.332;2022-09-09T11:38:21;1.38;;;1.30;;
13879;SDS011;7010;48.200;16.332;2022-09-09T11:40:55;13.55;;;1.52;;
13879;SDS011;7010;48.200;16.332;2022-09-09T11:43:27;1.33;;;1.23;;
13879;SDS011;7010;48.200;16.332;2022-09-09T11:45:59;1.30;;;1.20;;
13879;SDS011;7010;48.200;16.332;2022-09-09T11:48:33;1.13;;;1.13;;
13879;SDS011;7010;48.200;16.332;2022-09-09T11:51:04;0.95;;;0.95;;
13879;SDS011;7010;48.200;16.332;2022-09-09T11:53:48;1.60;;;1.50;;
13879;SDS011;7010;48.200;16.332;2022-09-09T11:56:25;1.70;;;1.60;;
13879;SDS011;7010;48.200;16.332;2022-09-09T11:58:57;1.30;;;1.20;;
13879;SDS011;7010;48.200;16.332;2022-09-09T12:01:33;1.70;;;1.60;;
13879;SDS011;7010;48.200;16.332;2022-09-09T12:04:26;2.50;;;1.85;;
13879;SDS011;7010;48.200;16.332;2022-09-09T12:06:59;3.08;;;1.70;;
13879;SDS011;7010;48.200;16.332;2022-09-09T12:09:43;1.55;;;1.20;;
13879;SDS011;7010;48.200;16.332;2022-09-09T12:12:21;2.22;;;1.98;;
13879;SDS011;7010;48.200;16.332;2022-09-09T12:14:55;1.20;;;1.17;;
13879;SDS011;7010;48.200;16.332;2022-09-09T12:17:29;2.15;;;1.63;;
13879;SDS011;7010;48.200;16.332;2022-09-09T12:20:02;2.55;;;1.65;;
13879;SDS011;7010;48.200;16.332;2022-09-09T12:22:38;1.65;;;1.40;;
13879;SDS011;7010;48.200;16.332;2022-09-09T12:25:18;2.35;;;1.90;;
13879;SDS011;7010;48.200;16.332;2022-09-09T12:27:58;1.55;;;1.45;;
13879;SDS011;7010;48.200;16.332;2022-09-09T12:30:34;2.15;;;1.92;;
13879;SDS011;7010;48.200;16.332;2022-09-09T12:33:10;1.88;;;1.77;;
13879;SDS011;7010;48.200;16.332;2022-09-09T12:35:41;4.47;;;2.03;;
13879;SDS011;7010;48.200;16.332;2022-09-09T12:38:12;1.90;;;1.50;;
13879;SDS011;7010;48.200;16.332;2022-09-09T12:40:43;1.52;;;1.27;;
13879;SDS011;7010;48.200;16.332;2022-09-09T12:43:23;1.50;;;1.40;;
13879;SDS011;7010;48.200;16.332;2022-09-09T12:45:53;1.40;;;1.30;;
13879;SDS011;7010;48.200;16.332;2022-09-09T12:48:31;2.05;;;1.50;;
13879;SDS011;7010;48.200;16.332;2022-09-09T12:51:04;1.05;;;1.05;;
13879;SDS011;7010;48.200;16.332;2022-09-09T12:53:44;1.10;;;1.10;;
13879;SDS011;7010;48.200;16.332;2022-09-09T12:56:18;1.23;;;1.10;;
13879;SDS011;7010;48.200;16.332;2022-09-09T12:58:49;1.58;;;1.40;;
13879;SDS011;7010;48.200;16.332;2022-09-09T13:01:21;1.13;;;1.13;;
13879;SDS011;7010;48.200;16.332;2022-09-09T13:03:51;1.58;;;1.48;;
13879;SDS011;7010;48.200;16.332;2022-09-09T13:06:22;2.22;;;1.83;;
13879;SDS011;7010;48.200;16.332;2022-09-09T13:08:55;2.97;;;1.35;;
13879;SDS011;7010;48.200;16.332;2022-09-09T13:11:26;1.85;;;1.20;;
13879;SDS011;7010;48.200;16.332;2022-09-09T13:13:57;1.48;;;1.30;;
13879;SDS011;7010;48.200;16.332;2022-09-09T13:16:27;1.35;;;1.25;;
13879;SDS011;7010;48.200;16.332;2022-09-09T13:19:00;1.67;;;1.30;;
13879;SDS011;7010;48.200;16.332;2022-09-09T13:21:36;1.60;;;1.50;;
13879;SDS011;7010;48.200;16.332;2022-09-09T13:24:06;2.13;;;1.40;;
13879;SDS011;7010;48.200;16.332;2022-09-09T13:26:54;3.20;;;1.85;;
13879;SDS011;7010;48.200;16.332;2022-09-09T13:29:23;2.78;;;1.10;;
13879;SDS011;7010;48.200;16.332;2022-09-09T13:31:52;2.03;;;1.83;;
13879;SDS011;7010;48.200;16.332;2022-09-09T13:34:28;1.55;;;1.45;;
13879;SDS011;7010;48.200;16.332;2022-09-09T13:37:00;1.30;;;1.20;;
13879;SDS011;7010;48.200;16.332;2022-09-09T13:39:29;1.77;;;1.42;;
13879;SDS011;7010;48.200;16.332;2022-09-09T13:41:58;1.48;;;1.38;;
13879;SDS011;7010;48.200;16.332;2022-09-09T13:44:28;2.50;;;1.77;;
13879;SDS011;7010;48.200;16.332;2022-09-09T13:47:00;1.23;;;1.13;;
13879;SDS011;7010;48.200;16.332;2022-09-09T13:49:35;2.05;;;1.50;;
13879;SDS011;7010;48.200;16.332;2022-09-09T13:52:08;3.25;;;1.40;;
13879;SDS011;7010;48.200;16.332;2022-09-09T13:54:39;1.90;;;1.80;;
13879;SDS011;7010;48.200;16.332;2022-09-09T13:57:14;2.40;;;1.70;;
13879;SDS011;7010;48.200;16.332;2022-09-09T13:59:44;3.35;;;1.40;;
13879;SDS011;7010;48.200;16.332;2022-09-09T14:02:30;1.63;;;1.20;;
13879;SDS011;7010;48.200;16.332;2022-09-09T14:04:59;1.40;;;1.30;;
13879;SDS011;7010;48.200;16.332;2022-09-09T14:07:29;4.88;;;1.35;;
13879;SDS011;7010;48.200;16.332;2022-09-09T14:09:58;2.20;;;1.63;;
13879;SDS011;7010;48.200;16.332;2022-09-09T14:12:26;1.77;;;1.60;;
13879;SDS011;7010;48.200;16.332;2022-09-09T14:14:55;1.60;;;1.50;;
13879;SDS011;7010;48.200;16.332;2022-09-09T14:17:23;0.95;;;0.95;;
13879;SDS011;7010;48.200;16.332;2022-09-09T14:19:53;1.20;;;1.20;;
13879;SDS011;7010;48.200;16.332;2022-09-09T14:22:22;1.25;;;1.23;;
13879;SDS011;7010;48.200;16.332;2022-09-09T14:24:53;1.10;;;1.10;;
13879;SDS011;7010;48.200;16.332;2022-09-09T14:27:21;1.25;;;1.15;;
13879;SDS011;7010;48.200;16.332;2022-09-09T14:29:49;1.27;;;1.10;;
13879;SDS011;7010;48.200;16.332;2022-09-09T14:32:17;1.00;;;1.00;;
13879;SDS011;7010;48.200;16.332;2022-09-09T14:34:46;1.17;;;1.15;;
13879;SDS011;7010;48.200;16.332;2022-09-09T14:37:16;1.05;;;0.98;;
13879;SDS011;7010;48.200;16.332;2022-09-09T14:39:44;2.13;;;1.80;;
13879;SDS011;7010;48.200;16.332;2022-09-09T14:42:14;1.70;;;1.60;;
13879;SDS011;7010;48.200;16.332;2022-09-09T14:44:43;1.70;;;1.60;;
13879;SDS011;7010;48.200;16.332;2022-09-09T14:47:11;5.53;;;1.63;;
13879;SDS011;7010;48.200;16.332;2022-09-09T14:49:39;5.22;;;1.88;;
13879;SDS011;7010;48.200;16.332;2022-09-09T14:52:12;1.48;;;1.38;;
13879;SDS011;7010;48.200;16.332;2022-09-09T14:54:40;1.45;;;1.35;;
13879;SDS011;7010;48.200;16.332;2022-09-09T14:57:08;1.60;;;1.50;;
13879;SDS011;7010;48.200;16.332;2022-09-09T14:59:38;1.30;;;1.20;;
13879;SDS011;7010;48.200;16.332;2022-09-09T15:02:07;1.48;;;1.38;;
13879;SDS011;7010;48.200;16.332;2022-09-09T15:04:36;1.80;;;1.58;;
13879;SDS011;7010;48.200;16.332;2022-09-09T15:07:04;1.80;;;1.65;;
13879;SDS011;7010;48.200;16.332;2022-09-09T15:09:32;1.55;;;1.45;;
13879;SDS011;7010;48.200;16.332;2022-09-09T15:12:01;2.38;;;1.90;;
13879;SDS011;7010;48.200;16.332;2022-09-09T15:14:30;1.70;;;1.58;;
13879;SDS011;7010;48.200;16.332;2022-09-09T15:17:00;1.85;;;1.55;;
13879;SDS011;7010;48.200;16.332;2022-09-09T15:19:28;1.80;;;1.70;;
13879;SDS011;7010;48.200;16.332;2022-09-09T15:21:57;1.90;;;1.13;;